Atwater, New York
Current Conditions -  °F | °C
As of 3:56 AM on Monday 20 Oct 2014 (Local Time) from KITH Reporting Station
Overcast Overcast  
Wind Chill: 29°   Ceiling: 3600
Heat Index: 33°   Visibility: 10mi
Dew Point: 32°   Wind: 5mph
Humidity: 96%   Direction: 100°E
Pressure: 30.02"   Gusts: NA
Location:  42.6734°N, 76.6263°W
Report Text: KITH 200756Z AUTO 10004KT 10SM OVC036 01/00 A3002 RMK AO2 T00050000 OVC V BKN SLP175
Loading
Personal Weather Stations






























Interactive Weather Map
Tropical Storm Tracking
New forecast layout! Learn more

10-Day Weather Forecast

Advertisements
Track Severe Weather on mobile